M/V Alton St. Amant — WDE7604 — position and weather

sailwx.info

Track history (hours):
 
Tides and Currents Weather Stations Pressure Air Temp Water Temp Dewpoint Dewpoint Depression Visibility Wind Speed Wind Dir Waves Ship Positions

M/V Alton St. Amant

Owner: The Barge Investment Group Five, L.L.C., Harahan, LA. More information available from US FCC via Universal Licensing System and Coast Guard Vessel Documentation Center.

Last reported at 2016-Jun-26 20:32 UTC. Time now 2016-Jun-26 21:00 UTC.
Position N 29°47' W 095°05'.

Length 25 m; draft 2.7 m.

Type: Towing. MMSI: 367395270.

Date/timePositionNaut miles runAvg speedWind from/ knotsBaromVisibWave heightAir tempDewpointWater temp
2016-Jun-26 20:32N 29°47' W 095°05'0 0.0
2016-Jun-26 19:33N 29°47' W 095°05'0 0.0
2016-Jun-26 18:33N 29°47' W 095°05'0 0.0
2016-Jun-26 17:28N 29°47' W 095°05'0 0.0
2016-Jun-26 06:25N 29°47' W 095°05'0 0.0
2016-Jun-26 04:33N 29°47' W 095°05'0 0.0
2016-Jun-26 03:31N 29°47' W 095°05'0 0.0
2016-Jun-26 02:08N 29°47' W 095°05'0 0.0
2016-Jun-25 21:32N 29°47' W 095°05'2 2.2
2016-Jun-25 20:33N 29°45' W 095°06'0 0.0
2016-Jun-25 19:33N 29°45' W 095°06'0 0.0
2016-Jun-25 17:32N 29°45' W 095°06'0 0.0
2016-Jun-25 16:33N 29°45' W 095°06'0 0.0
2016-Jun-25 14:33N 29°45' W 095°06'0 0.0
2016-Jun-25 13:33N 29°45' W 095°06'0 0.0
2016-Jun-25 12:33N 29°45' W 095°06'0 0.0
2016-Jun-25 10:12N 29°45' W 095°06'0 0.0
2016-Jun-25 09:23N 29°45' W 095°06'0 0.0
2016-Jun-25 06:13N 29°45' W 095°06'0 0.0
2016-Jun-25 05:30N 29°45' W 095°06'0 0.0
2016-Jun-25 04:32N 29°45' W 095°06'0 0.1
2016-Jun-25 03:25N 29°45' W 095°06'0 0.1
2016-Jun-25 02:33N 29°45' W 095°06'0 0.0
2016-Jun-25 01:25N 29°45' W 095°06'0 0.0
2016-Jun-25 00:33N 29°45' W 095°06'0 0.4
2016-Jun-24 23:32N 29°45' W 095°06'2 0.1
2016-Jun-24 01:28N 29°44' W 095°08'4 4.2
2016-Jun-24 00:33N 29°45' W 095°04'7 6.5
2016-Jun-23 23:33N 29°40' W 094°58'8 7.6
2016-Jun-23 22:33N 29°33' W 094°55'66 4.9
2016-Jun-23 09:09N 30°01' W 093°45'4 6.4
2016-Jun-23 08:33N 30°03' W 093°42'6 5.6
2016-Jun-23 07:33N 30°04' W 093°36'9 4.4
2016-Jun-23 05:33N 30°04' W 093°25'4 4.0
2016-Jun-23 04:33N 30°04' W 093°21'3 2.9
2016-Jun-23 03:33N 30°06' W 093°18'4 3.7
2016-Jun-23 02:33N 30°03' W 093°16'4 4.0
2016-Jun-23 01:33N 29°59' W 093°13'4 3.9
2016-Jun-23 00:33N 29°56' W 093°10'5 4.9
2016-Jun-22 23:33N 29°56' W 093°04'5 5.3
2016-Jun-22 22:33N 29°56' W 092°58'5 4.9
2016-Jun-22 21:33N 29°57' W 092°53'21 5.0
2016-Jun-22 17:28N 29°54' W 092°29'5 5.0
2016-Jun-22 16:33N 29°53' W 092°24'5 4.5
2016-Jun-22 15:33N 29°51' W 092°20'5 4.8
2016-Jun-22 14:33N 29°48' W 092°15'3 3.5
2016-Jun-22 13:33N 29°47' W 092°11'5 4.7
2016-Jun-22 12:33N 29°48' W 092°06'6 5.6
2016-Jun-22 11:34N 29°50' W 091°60'59 4.9
2016-Jun-21 23:31N 29°34' W 090°55'5 5.7
2016-Jun-21 22:33N 29°32' W 090°49'5 4.9
2016-Jun-21 21:33N 29°34' W 090°44'3 3.4
2016-Jun-21 20:33N 29°37' W 090°41'5 4.5
2016-Jun-21 19:33N 29°35' W 090°37'5 4.6
2016-Jun-21 18:31N 29°34' W 090°31'30 4.0
2016-Jun-21 11:09N 29°50' W 090°03'  
Track history (hours):
 
Tides and Currents Weather Stations Pressure Air Temp Water Temp Dewpoint Dewpoint Depression Visibility Wind Speed Wind Dir Waves Ship Positions

M/V Alton St. Amant

Owner: The Barge Investment Group Five, L.L.C., Harahan, LA. More information available from US FCC via Universal Licensing System and Coast Guard Vessel Documentation Center.

Last reported at 2016-Jun-26 20:32 UTC. Time now 2016-Jun-26 21:00 UTC.
Position N 29°47' W 095°05'.

Length 25 m; draft 2.7 m.

Type: Towing. MMSI: 367395270.

Date/timePositionNaut miles runAvg speedWind from/ knotsBaromVisibWave heightAir tempDewpointWater temp
2016-Jun-26 20:32N 29°47' W 095°05'0 0.0
2016-Jun-26 19:33N 29°47' W 095°05'0 0.0
2016-Jun-26 18:33N 29°47' W 095°05'0 0.0
2016-Jun-26 17:28N 29°47' W 095°05'0 0.0
2016-Jun-26 06:25N 29°47' W 095°05'0 0.0
2016-Jun-26 04:33N 29°47' W 095°05'0 0.0
2016-Jun-26 03:31N 29°47' W 095°05'0 0.0
2016-Jun-26 02:08N 29°47' W 095°05'0 0.0
2016-Jun-25 21:32N 29°47' W 095°05'2 2.2
2016-Jun-25 20:33N 29°45' W 095°06'0 0.0
2016-Jun-25 19:33N 29°45' W 095°06'0 0.0
2016-Jun-25 17:32N 29°45' W 095°06'0 0.0
2016-Jun-25 16:33N 29°45' W 095°06'0 0.0
2016-Jun-25 14:33N 29°45' W 095°06'0 0.0
2016-Jun-25 13:33N 29°45' W 095°06'0 0.0
2016-Jun-25 12:33N 29°45' W 095°06'0 0.0
2016-Jun-25 10:12N 29°45' W 095°06'0 0.0
2016-Jun-25 09:23N 29°45' W 095°06'0 0.0
2016-Jun-25 06:13N 29°45' W 095°06'0 0.0
2016-Jun-25 05:30N 29°45' W 095°06'0 0.0
2016-Jun-25 04:32N 29°45' W 095°06'0 0.1
2016-Jun-25 03:25N 29°45' W 095°06'0 0.1
2016-Jun-25 02:33N 29°45' W 095°06'0 0.0
2016-Jun-25 01:25N 29°45' W 095°06'0 0.0
2016-Jun-25 00:33N 29°45' W 095°06'0 0.4
2016-Jun-24 23:32N 29°45' W 095°06'2 0.1
2016-Jun-24 01:28N 29°44' W 095°08'4 4.2
2016-Jun-24 00:33N 29°45' W 095°04'7 6.5
2016-Jun-23 23:33N 29°40' W 094°58'8 7.6
2016-Jun-23 22:33N 29°33' W 094°55'66 4.9
2016-Jun-23 09:09N 30°01' W 093°45'4 6.4
2016-Jun-23 08:33N 30°03' W 093°42'6 5.6
2016-Jun-23 07:33N 30°04' W 093°36'9 4.4
2016-Jun-23 05:33N 30°04' W 093°25'4 4.0
2016-Jun-23 04:33N 30°04' W 093°21'3 2.9
2016-Jun-23 03:33N 30°06' W 093°18'4 3.7
2016-Jun-23 02:33N 30°03' W 093°16'4 4.0
2016-Jun-23 01:33N 29°59' W 093°13'4 3.9
2016-Jun-23 00:33N 29°56' W 093°10'5 4.9
2016-Jun-22 23:33N 29°56' W 093°04'5 5.3
2016-Jun-22 22:33N 29°56' W 092°58'5 4.9
2016-Jun-22 21:33N 29°57' W 092°53'21 5.0
2016-Jun-22 17:28N 29°54' W 092°29'5 5.0
2016-Jun-22 16:33N 29°53' W 092°24'5 4.5
2016-Jun-22 15:33N 29°51' W 092°20'5 4.8
2016-Jun-22 14:33N 29°48' W 092°15'3 3.5
2016-Jun-22 13:33N 29°47' W 092°11'5 4.7
2016-Jun-22 12:33N 29°48' W 092°06'6 5.6
2016-Jun-22 11:34N 29°50' W 091°60'59 4.9
2016-Jun-21 23:31N 29°34' W 090°55'5 5.7
2016-Jun-21 22:33N 29°32' W 090°49'5 4.9
2016-Jun-21 21:33N 29°34' W 090°44'3 3.4
2016-Jun-21 20:33N 29°37' W 090°41'5 4.5
2016-Jun-21 19:33N 29°35' W 090°37'5 4.6
2016-Jun-21 18:31N 29°34' W 090°31'30 4.0
2016-Jun-21 11:09N 29°50' W 090°03'  

Dump ship's entire track history